createdAt,value
2022-07-26T00:01:59.559Z,22.42
2022-07-26T00:04:33.471Z,22.39
2022-07-26T00:07:07.149Z,22.35
2022-07-26T00:09:43.764Z,22.32
2022-07-26T00:12:20.011Z,22.33
2022-07-26T00:14:53.746Z,22.35
2022-07-26T00:17:27.606Z,22.33
2022-07-26T00:20:01.309Z,22.34
2022-07-26T00:22:39.761Z,22.31
2022-07-26T00:25:13.738Z,22.22
2022-07-26T00:27:47.390Z,22.18
2022-07-26T00:30:21.422Z,22.17
2022-07-26T00:32:55.389Z,22.13
2022-07-26T00:35:29.086Z,22.09
2022-07-26T00:38:02.913Z,22.05
2022-07-26T00:40:37.401Z,22.00
2022-07-26T00:43:10.693Z,21.95
2022-07-26T00:45:44.874Z,21.95
2022-07-26T00:48:18.329Z,21.91
2022-07-26T00:50:52.030Z,21.88
2022-07-26T00:53:26.040Z,21.86
2022-07-26T00:55:59.644Z,21.79
2022-07-26T00:58:33.346Z,21.71
2022-07-26T01:01:06.956Z,21.64
2022-07-26T01:03:41.916Z,21.61
2022-07-26T01:06:15.440Z,21.55
2022-07-26T01:08:49.057Z,21.52
2022-07-26T01:11:22.343Z,21.44
2022-07-26T01:13:56.227Z,21.38
2022-07-26T01:16:30.050Z,21.34
2022-07-26T01:19:03.347Z,21.34
2022-07-26T01:21:36.973Z,21.27
2022-07-26T01:24:11.435Z,21.19
2022-07-26T01:26:45.600Z,21.15
2022-07-26T01:29:19.216Z,21.16
2022-07-26T01:31:53.193Z,21.15
2022-07-26T01:34:26.930Z,21.15
2022-07-26T01:37:00.672Z,21.14
2022-07-26T01:39:33.900Z,21.18
2022-07-26T01:42:07.652Z,21.17
2022-07-26T01:44:40.891Z,21.18
2022-07-26T01:47:14.299Z,21.18
2022-07-26T01:49:48.191Z,21.16
2022-07-26T01:52:22.456Z,21.16
2022-07-26T01:54:58.287Z,21.09
2022-07-26T01:57:32.190Z,21.06
2022-07-26T02:00:07.487Z,21.07
2022-07-26T02:02:41.212Z,21.07
2022-07-26T02:05:15.943Z,20.98
2022-07-26T02:07:49.039Z,20.90
2022-07-26T02:10:23.914Z,20.85
2022-07-26T02:12:59.361Z,20.77
2022-07-26T02:15:32.974Z,20.77
2022-07-26T02:18:06.259Z,20.71
2022-07-26T02:20:40.015Z,20.75
2022-07-26T02:23:14.295Z,20.81
2022-07-26T02:25:48.183Z,20.81
2022-07-26T02:28:21.934Z,20.79
2022-07-26T02:30:55.538Z,20.76
2022-07-26T02:33:30.712Z,20.73
2022-07-26T02:36:04.339Z,20.72
2022-07-26T02:38:37.820Z,20.75
2022-07-26T02:41:11.306Z,20.75
2022-07-26T02:43:44.754Z,20.76
2022-07-26T02:46:18.007Z,20.76
2022-07-26T02:48:52.259Z,20.70
2022-07-26T02:51:25.845Z,20.63
2022-07-26T02:53:59.571Z,20.61
2022-07-26T02:56:33.311Z,20.58
2022-07-26T02:59:06.800Z,20.56
2022-07-26T03:01:40.549Z,20.54
2022-07-26T03:04:13.929Z,20.51
2022-07-26T03:06:46.998Z,20.47
2022-07-26T03:09:20.754Z,20.47
2022-07-26T03:11:55.022Z,20.44
2022-07-26T03:14:28.342Z,20.43
2022-07-26T03:17:01.873Z,20.44
2022-07-26T03:19:35.272Z,20.53
2022-07-26T03:22:08.348Z,20.57
2022-07-26T03:24:41.573Z,20.57
2022-07-26T03:27:15.120Z,20.59
2022-07-26T03:29:48.473Z,20.63
2022-07-26T03:32:21.998Z,20.65
2022-07-26T03:34:55.951Z,20.72
2022-07-26T03:37:45.325Z,20.81
2022-07-26T03:40:21.485Z,20.85
2022-07-26T03:42:55.065Z,20.81
2022-07-26T03:45:29.637Z,20.78
2022-07-26T03:48:02.975Z,20.77
2022-07-26T03:50:36.517Z,20.80
2022-07-26T03:53:09.536Z,20.76
2022-07-26T03:56:00.409Z,20.76
2022-07-26T03:58:33.934Z,20.78
2022-07-26T04:01:07.167Z,20.77
2022-07-26T04:03:44.456Z,20.78
2022-07-26T04:06:23.104Z,20.77
2022-07-26T04:08:57.167Z,20.76
2022-07-26T04:11:30.513Z,20.75
2022-07-26T04:14:03.938Z,20.76
2022-07-26T04:16:42.905Z,20.74
2022-07-26T04:19:18.011Z,20.74
2022-07-26T04:21:51.685Z,20.78
2022-07-26T04:24:25.743Z,20.86
2022-07-26T04:26:59.326Z,20.93
2022-07-26T04:29:32.638Z,20.94
2022-07-26T04:32:06.355Z,20.98
2022-07-26T04:34:40.162Z,21.08
2022-07-26T04:37:13.228Z,21.10
2022-07-26T04:39:48.442Z,21.13
2022-07-26T04:42:25.188Z,21.19
2022-07-26T04:44:58.497Z,21.24
2022-07-26T04:47:32.029Z,21.30
2022-07-26T04:50:06.148Z,21.36
2022-07-26T04:52:39.650Z,21.40
2022-07-26T04:55:14.480Z,21.42
2022-07-26T04:57:48.547Z,21.43
2022-07-26T05:00:25.251Z,21.50
2022-07-26T05:03:00.490Z,21.56
2022-07-26T05:05:35.639Z,21.69
2022-07-26T05:08:09.098Z,21.76
2022-07-26T05:10:44.912Z,21.77
2022-07-26T05:13:18.473Z,21.76
2022-07-26T05:16:03.669Z,21.78
2022-07-26T05:18:49.396Z,21.75
2022-07-26T05:21:23.148Z,21.72
2022-07-26T05:23:56.586Z,21.80
2022-07-26T05:26:30.170Z,21.98
2022-07-26T05:29:03.665Z,22.38
2022-07-26T05:31:36.856Z,22.80
2022-07-26T05:34:10.797Z,23.02
2022-07-26T05:36:44.359Z,23.10
2022-07-26T05:39:18.033Z,23.28
2022-07-26T05:41:51.561Z,23.39
2022-07-26T05:44:25.067Z,23.49
2022-07-26T05:46:59.952Z,23.52
2022-07-26T05:49:40.358Z,23.55
2022-07-26T05:52:14.453Z,23.53
2022-07-26T05:54:47.698Z,23.49
2022-07-26T05:57:21.553Z,23.54
2022-07-26T05:59:54.933Z,23.65
2022-07-26T06:02:28.500Z,23.76
2022-07-26T06:05:01.899Z,23.90
2022-07-26T06:07:35.137Z,24.07
2022-07-26T06:10:10.154Z,24.34
2022-07-26T06:12:43.513Z,24.57
2022-07-26T06:15:16.661Z,24.70
2022-07-26T06:17:50.224Z,24.78
2022-07-26T06:20:23.428Z,24.77
2022-07-26T06:22:58.994Z,24.84
2022-07-26T06:25:32.347Z,24.92
2022-07-26T06:28:08.184Z,24.97
2022-07-26T06:30:41.957Z,25.02
2022-07-26T06:33:16.741Z,25.08
2022-07-26T06:35:50.352Z,25.14
2022-07-26T06:38:23.944Z,25.30
2022-07-26T06:40:57.577Z,25.43
2022-07-26T06:43:31.150Z,25.57
2022-07-26T06:46:04.385Z,25.76
2022-07-26T06:48:38.071Z,25.99
2022-07-26T06:51:15.719Z,26.48
2022-07-26T06:53:49.301Z,26.98
2022-07-26T06:56:23.580Z,27.47
2022-07-26T06:58:57.894Z,28.19
2022-07-26T07:01:51.324Z,28.44
2022-07-26T07:04:24.790Z,28.41
2022-07-26T07:07:02.755Z,28.36
2022-07-26T07:09:39.566Z,28.40
2022-07-26T07:12:13.198Z,28.42
2022-07-26T07:14:46.747Z,28.37
2022-07-26T07:17:22.684Z,28.42
2022-07-26T07:19:56.204Z,28.56
2022-07-26T07:22:29.711Z,28.95
2022-07-26T07:25:03.121Z,29.42
2022-07-26T07:27:40.196Z,29.56
2022-07-26T07:30:17.430Z,29.50
2022-07-26T07:32:50.926Z,29.39
2022-07-26T07:35:24.636Z,29.25
2022-07-26T07:38:05.465Z,28.99
2022-07-26T07:40:39.680Z,28.90
2022-07-26T07:43:13.325Z,28.81
2022-07-26T07:45:48.764Z,28.67
2022-07-26T07:48:22.911Z,28.56
2022-07-26T07:50:56.280Z,28.50
2022-07-26T07:53:30.965Z,28.48
2022-07-26T07:56:05.152Z,28.40
2022-07-26T07:58:39.311Z,28.31
2022-07-26T08:01:13.342Z,28.09
2022-07-26T08:03:50.450Z,27.96
2022-07-26T08:06:24.190Z,27.79
2022-07-26T08:08:57.743Z,27.67
2022-07-26T08:11:31.349Z,27.67
2022-07-26T08:14:07.624Z,27.68
2022-07-26T08:16:45.560Z,27.66
2022-07-26T08:19:19.464Z,27.69
2022-07-26T08:21:56.337Z,27.73
2022-07-26T08:24:30.706Z,27.77
2022-07-26T08:27:03.891Z,27.82
2022-07-26T08:29:37.554Z,27.84
2022-07-26T08:32:11.462Z,27.88
2022-07-26T08:34:44.865Z,27.97
2022-07-26T08:37:18.691Z,28.06
2022-07-26T08:39:52.481Z,28.18
2022-07-26T08:42:26.510Z,28.34
2022-07-26T08:45:01.351Z,28.48
2022-07-26T08:47:37.473Z,28.62
2022-07-26T08:50:14.196Z,28.79
2022-07-26T08:52:48.422Z,28.87
2022-07-26T08:55:22.736Z,28.97
2022-07-26T08:58:06.759Z,29.02
2022-07-26T09:00:41.752Z,29.06
2022-07-26T09:03:28.242Z,29.08
2022-07-26T09:06:14.912Z,29.09
2022-07-26T09:08:50.038Z,29.18
2022-07-26T09:11:36.200Z,29.35
2022-07-26T09:14:09.583Z,29.51
2022-07-26T09:16:43.425Z,29.60
2022-07-26T09:19:23.064Z,29.65
2022-07-26T09:21:58.237Z,29.64
2022-07-26T09:24:41.455Z,29.63
2022-07-26T09:27:17.354Z,29.63
2022-07-26T09:29:53.424Z,29.66
2022-07-26T09:32:28.949Z,29.69
2022-07-26T09:38:16.199Z,29.73
2022-07-26T09:40:50.985Z,29.77
2022-07-26T09:43:25.439Z,29.77
2022-07-26T09:46:11.292Z,29.75
2022-07-26T09:49:09.423Z,29.76
2022-07-26T09:51:45.000Z,29.77
2022-07-26T09:54:33.868Z,29.72
2022-07-26T09:57:07.285Z,29.68
2022-07-26T09:59:41.071Z,29.64
2022-07-26T10:02:15.877Z,29.61
2022-07-26T10:04:49.226Z,29.65
2022-07-26T10:07:22.874Z,29.77
2022-07-26T10:10:11.659Z,29.99
2022-07-26T10:12:47.228Z,30.29
2022-07-26T10:15:36.988Z,30.51
2022-07-26T10:18:16.560Z,30.58
2022-07-26T10:20:54.666Z,30.50
2022-07-26T10:23:45.868Z,30.48
2022-07-26T10:26:42.065Z,30.49
2022-07-26T10:29:28.799Z,30.48
2022-07-26T10:32:21.882Z,30.41
2022-07-26T10:34:55.532Z,30.27
2022-07-26T10:37:30.349Z,30.21
2022-07-26T10:40:30.908Z,30.16
2022-07-26T10:43:39.999Z,30.16
2022-07-26T10:46:29.908Z,30.08
2022-07-26T10:49:04.942Z,30.01
2022-07-26T10:51:40.446Z,29.97
2022-07-26T10:54:16.031Z,29.85
2022-07-26T10:56:49.863Z,29.67
2022-07-26T10:59:54.893Z,29.58
2022-07-26T11:02:34.285Z,29.57
2022-07-26T11:05:14.564Z,29.47
2022-07-26T11:07:56.875Z,29.38
2022-07-26T11:10:32.944Z,29.25
2022-07-26T11:13:09.329Z,29.08
2022-07-26T11:15:44.635Z,28.95
2022-07-26T11:18:24.659Z,28.90
2022-07-26T11:20:59.702Z,28.76
2022-07-26T11:23:35.705Z,28.59
2022-07-26T11:26:17.716Z,28.39
2022-07-26T11:29:06.135Z,28.23
2022-07-26T11:31:51.376Z,28.11
2022-07-26T11:34:35.085Z,27.94
2022-07-26T11:37:08.973Z,27.81
2022-07-26T11:39:42.335Z,27.65
2022-07-26T11:42:20.011Z,27.56
2022-07-26T11:44:54.349Z,27.43
2022-07-26T11:47:28.187Z,27.23
2022-07-26T11:50:22.205Z,27.07
2022-07-26T11:52:56.977Z,26.92
2022-07-26T11:55:32.099Z,26.78
2022-07-26T11:58:09.888Z,26.67
2022-07-26T12:00:44.260Z,26.58
2022-07-26T12:03:17.950Z,26.45
2022-07-26T12:06:05.680Z,26.30
2022-07-26T12:08:46.993Z,26.17
2022-07-26T12:11:25.612Z,26.05
2022-07-26T12:14:01.712Z,25.94
2022-07-26T12:16:48.697Z,25.85
2022-07-26T12:19:32.867Z,25.80
2022-07-26T12:22:14.331Z,25.79
2022-07-26T12:24:57.228Z,25.79
2022-07-26T12:27:32.756Z,25.71
2022-07-26T12:30:19.854Z,25.68
2022-07-26T12:32:55.518Z,25.60
2022-07-26T12:35:36.001Z,25.51
2022-07-26T12:38:09.858Z,25.39
2022-07-26T12:40:45.588Z,25.30
2022-07-26T12:43:19.486Z,25.19
2022-07-26T12:45:53.196Z,25.06
2022-07-26T12:48:26.778Z,24.98
2022-07-26T12:51:02.381Z,24.84
2022-07-26T12:53:39.519Z,24.65
2022-07-26T12:56:13.216Z,24.47
2022-07-26T12:58:47.178Z,24.32
2022-07-26T13:01:20.877Z,24.23
2022-07-26T13:03:54.807Z,24.17
2022-07-26T13:06:28.738Z,24.12
2022-07-26T13:09:03.079Z,24.07
2022-07-26T13:11:36.746Z,23.99
2022-07-26T13:14:10.524Z,23.97
2022-07-26T13:16:47.113Z,23.95
2022-07-26T13:19:20.745Z,23.94
2022-07-26T13:21:54.258Z,23.92
2022-07-26T13:24:28.894Z,23.91
2022-07-26T13:27:03.576Z,23.90
2022-07-26T13:29:37.854Z,23.90
2022-07-26T13:32:11.697Z,23.89
2022-07-26T13:34:45.337Z,23.90
2022-07-26T13:37:18.829Z,23.86
2022-07-26T13:39:52.352Z,23.81
2022-07-26T13:42:26.196Z,23.81
2022-07-26T13:45:00.594Z,23.82
2022-07-26T13:47:33.827Z,23.89
2022-07-26T13:50:08.355Z,23.93
2022-07-26T13:52:42.337Z,23.97
2022-07-26T13:55:15.454Z,23.97
2022-07-26T13:57:57.043Z,23.95
2022-07-26T14:00:32.171Z,23.97
2022-07-26T14:03:05.970Z,23.93
2022-07-26T14:05:39.503Z,23.95
2022-07-26T14:08:12.818Z,23.97
2022-07-26T14:10:46.662Z,23.99
2022-07-26T14:13:20.342Z,23.96
2022-07-26T14:15:53.741Z,23.92
2022-07-26T14:18:27.025Z,23.89
2022-07-26T14:21:00.193Z,23.87
2022-07-26T14:23:34.077Z,23.88
2022-07-26T14:26:07.615Z,23.84
2022-07-26T14:28:41.231Z,23.78
2022-07-26T14:31:15.031Z,23.74
2022-07-26T14:33:49.302Z,23.72
2022-07-26T14:36:22.818Z,23.73
2022-07-26T14:38:56.323Z,23.73
2022-07-26T14:41:30.296Z,23.74
2022-07-26T14:44:05.327Z,23.78
2022-07-26T14:46:38.669Z,23.80
2022-07-26T14:49:12.612Z,23.77
2022-07-26T14:51:48.068Z,23.74
2022-07-26T14:54:22.902Z,23.68
2022-07-26T14:56:57.473Z,23.66
2022-07-26T14:59:30.909Z,23.65
2022-07-26T15:02:05.983Z,23.65
2022-07-26T15:04:40.061Z,23.65
2022-07-26T15:07:13.312Z,23.64
2022-07-26T15:09:46.560Z,23.59
2022-07-26T15:12:19.607Z,23.57
2022-07-26T15:14:52.808Z,23.56
2022-07-26T15:17:26.973Z,23.56
2022-07-26T15:20:00.175Z,23.54
2022-07-26T15:22:33.498Z,23.52
2022-07-26T15:25:08.516Z,23.51
2022-07-26T15:27:42.012Z,23.48
2022-07-26T15:30:16.156Z,23.45
2022-07-26T15:32:50.213Z,23.46
2022-07-26T15:35:23.476Z,23.48
2022-07-26T15:37:56.922Z,23.48
2022-07-26T15:40:30.768Z,23.47
2022-07-26T15:43:04.331Z,23.47
2022-07-26T15:45:41.412Z,23.43
2022-07-26T15:48:20.787Z,23.37
2022-07-26T15:50:55.778Z,23.32
2022-07-26T15:53:29.658Z,23.27
2022-07-26T15:56:03.469Z,23.21
2022-07-26T15:58:36.614Z,23.16
2022-07-26T16:01:09.787Z,23.11
2022-07-26T16:03:42.916Z,23.09
2022-07-26T16:06:16.170Z,23.07
2022-07-26T16:09:14.770Z,23.09
2022-07-26T16:11:42.596Z,23.08
2022-07-26T16:14:16.360Z,23.03
2022-07-26T16:16:49.690Z,22.99
2022-07-26T16:19:22.932Z,22.91
2022-07-26T16:21:56.166Z,22.86
2022-07-26T16:24:29.514Z,22.83
2022-07-26T16:27:02.628Z,22.80
2022-07-26T16:29:35.802Z,22.76
2022-07-26T16:32:11.593Z,22.73
2022-07-26T16:34:44.774Z,22.70
2022-07-26T16:37:18.576Z,22.70
2022-07-26T16:39:52.046Z,22.70
2022-07-26T16:42:25.895Z,22.69
2022-07-26T16:44:59.804Z,22.69
2022-07-26T16:47:33.269Z,22.71
2022-07-26T16:50:07.544Z,22.73
2022-07-26T16:52:41.159Z,22.73
2022-07-26T16:55:16.061Z,22.74
2022-07-26T16:57:49.383Z,22.75
2022-07-26T17:00:22.923Z,22.75
2022-07-26T17:02:55.948Z,22.78
2022-07-26T17:05:29.609Z,22.78
2022-07-26T17:08:03.192Z,22.78
2022-07-26T17:10:36.667Z,22.78
2022-07-26T17:13:10.228Z,22.78
2022-07-26T17:15:43.685Z,22.78
2022-07-26T17:18:17.459Z,22.78
2022-07-26T17:20:50.910Z,22.76
2022-07-26T17:23:24.612Z,22.76
2022-07-26T17:25:58.436Z,22.75
2022-07-26T17:28:31.599Z,22.73
2022-07-26T17:31:05.145Z,22.76
2022-07-26T17:33:38.495Z,22.78
2022-07-26T17:36:25.727Z,22.76
2022-07-26T17:39:02.370Z,22.72
2022-07-26T17:41:36.259Z,22.68
2022-07-26T17:44:10.021Z,22.66
2022-07-26T17:46:43.836Z,22.67
2022-07-26T17:49:17.666Z,22.68
2022-07-26T17:51:56.040Z,22.69
2022-07-26T17:54:30.080Z,22.69
2022-07-26T17:57:04.278Z,22.69
2022-07-26T17:59:37.706Z,22.67
2022-07-26T18:02:11.074Z,22.64
2022-07-26T18:04:44.591Z,22.62
2022-07-26T18:07:18.055Z,22.61
2022-07-26T18:09:51.728Z,22.58
2022-07-26T18:12:25.341Z,22.58
2022-07-26T18:14:59.352Z,22.55
2022-07-26T18:17:36.633Z,22.51
2022-07-26T18:20:13.038Z,22.51
2022-07-26T18:22:50.436Z,22.50
2022-07-26T18:25:24.934Z,22.49
2022-07-26T18:28:00.000Z,22.47
2022-07-26T18:30:37.181Z,22.46
2022-07-26T18:33:13.708Z,22.46
2022-07-26T18:35:47.253Z,22.44
2022-07-26T18:38:21.127Z,22.45
2022-07-26T18:40:55.149Z,22.44
2022-07-26T18:43:28.981Z,22.40
2022-07-26T18:46:05.937Z,22.36
2022-07-26T18:48:41.794Z,22.33
2022-07-26T18:51:16.039Z,22.34
2022-07-26T18:53:50.912Z,22.35
2022-07-26T18:56:25.136Z,22.34
2022-07-26T18:58:58.635Z,22.31
2022-07-26T19:01:32.179Z,22.30
2022-07-26T19:04:07.346Z,22.30
2022-07-26T19:06:41.285Z,22.31
2022-07-26T19:09:14.623Z,22.32
2022-07-26T19:11:48.488Z,22.32
2022-07-26T19:14:22.860Z,22.30
2022-07-26T19:16:56.814Z,22.29
2022-07-26T19:19:31.127Z,22.27
2022-07-26T19:22:05.102Z,22.23
2022-07-26T19:24:48.275Z,22.23
2022-07-26T19:27:23.004Z,22.20
2022-07-26T19:29:59.014Z,22.17
2022-07-26T19:32:33.721Z,22.13
2022-07-26T19:35:09.710Z,22.11
2022-07-26T19:37:43.242Z,22.10
2022-07-26T19:40:16.983Z,22.10
2022-07-26T19:42:50.490Z,22.07
2022-07-26T19:45:24.308Z,22.04
2022-07-26T19:47:57.815Z,22.01
2022-07-26T19:50:31.950Z,21.99
2022-07-26T19:53:05.269Z,22.00
2022-07-26T19:55:41.964Z,21.96
2022-07-26T19:58:15.295Z,21.94
2022-07-26T20:00:49.192Z,21.91
2022-07-26T20:03:23.022Z,21.87
2022-07-26T20:05:57.237Z,21.86
2022-07-26T20:08:30.948Z,21.86
2022-07-26T20:11:05.138Z,21.87
2022-07-26T20:13:38.606Z,21.84
2022-07-26T20:16:12.240Z,21.81
2022-07-26T20:18:46.345Z,21.79
2022-07-26T20:21:19.914Z,21.78
2022-07-26T20:23:53.795Z,21.78
2022-07-26T20:26:27.241Z,21.79
2022-07-26T20:29:01.041Z,21.80
2022-07-26T20:31:34.757Z,21.76
2022-07-26T20:34:08.497Z,21.76
2022-07-26T20:36:42.742Z,21.78
2022-07-26T20:39:17.068Z,21.77
2022-07-26T20:41:51.062Z,21.75
2022-07-26T20:44:28.573Z,21.76
2022-07-26T20:47:02.815Z,21.74
2022-07-26T20:49:36.964Z,21.72
2022-07-26T20:52:10.952Z,21.70
2022-07-26T20:54:44.592Z,21.70
2022-07-26T20:57:18.008Z,21.69
2022-07-26T20:59:51.531Z,21.69
2022-07-26T21:02:24.994Z,21.67
2022-07-26T21:04:59.111Z,21.66
2022-07-26T21:07:57.373Z,21.66
2022-07-26T21:10:26.988Z,21.67
2022-07-26T21:13:01.327Z,21.65
2022-07-26T21:15:35.044Z,21.65
2022-07-26T21:18:09.219Z,21.63
2022-07-26T21:20:46.175Z,21.61
2022-07-26T21:23:19.286Z,21.61
2022-07-26T21:25:58.040Z,21.61
2022-07-26T21:28:35.293Z,21.59
2022-07-26T21:31:08.652Z,21.56
2022-07-26T21:33:44.593Z,21.53
2022-07-26T21:36:17.940Z,21.51
2022-07-26T21:38:51.803Z,21.50
2022-07-26T21:41:25.188Z,21.51
2022-07-26T21:43:58.756Z,21.49
2022-07-26T21:46:32.914Z,21.50
2022-07-26T21:49:06.729Z,21.52
2022-07-26T21:51:40.681Z,21.51
2022-07-26T21:54:13.991Z,21.50
2022-07-26T21:56:47.795Z,21.44
2022-07-26T21:59:21.469Z,21.41
2022-07-26T22:01:54.841Z,21.38
2022-07-26T22:04:28.196Z,21.36
2022-07-26T22:07:01.648Z,21.34
2022-07-26T22:09:34.877Z,21.33
2022-07-26T22:12:09.055Z,21.32
2022-07-26T22:14:42.252Z,21.32
2022-07-26T22:17:15.814Z,21.29
2022-07-26T22:19:49.459Z,21.26
2022-07-26T22:22:22.923Z,21.24
2022-07-26T22:24:56.986Z,21.21
2022-07-26T22:27:30.793Z,21.19
2022-07-26T22:30:04.424Z,21.14
2022-07-26T22:32:38.411Z,21.11
2022-07-26T22:35:13.008Z,21.10
2022-07-26T22:37:46.393Z,21.10
2022-07-26T22:40:19.902Z,21.10
2022-07-26T22:42:53.592Z,21.09
2022-07-26T22:45:27.598Z,21.06
2022-07-26T22:48:03.039Z,21.08
2022-07-26T22:50:37.295Z,21.04
2022-07-26T22:53:11.216Z,21.05
2022-07-26T22:55:44.914Z,21.04
2022-07-26T22:58:18.456Z,21.03
2022-07-26T23:00:52.183Z,21.01
2022-07-26T23:03:25.743Z,20.98
2022-07-26T23:06:01.376Z,20.97
2022-07-26T23:08:50.526Z,20.96
2022-07-26T23:11:24.176Z,20.95
2022-07-26T23:13:59.093Z,20.94
2022-07-26T23:16:32.798Z,20.93
2022-07-26T23:19:06.419Z,20.91
2022-07-26T23:21:40.214Z,20.90
2022-07-26T23:24:13.675Z,20.89
2022-07-26T23:26:46.937Z,20.87
2022-07-26T23:29:20.559Z,20.85
2022-07-26T23:31:53.793Z,20.83
2022-07-26T23:34:27.122Z,20.80
2022-07-26T23:37:00.823Z,20.78
2022-07-26T23:39:34.477Z,20.77
2022-07-26T23:42:08.646Z,20.76
2022-07-26T23:44:42.093Z,20.72
2022-07-26T23:47:16.023Z,20.68
2022-07-26T23:49:49.213Z,20.66
2022-07-26T23:52:23.758Z,20.67
2022-07-26T23:54:59.214Z,20.70
2022-07-26T23:57:32.648Z,20.72
